Detalii statie TRANSAVIA GRUP [00001CF7]

Toti senzorii

Date Temperatura solului [C]Precipitatii [mm]Voltaj baterie [mV]HC Air temperature [C]HC Relative humidity [%]Punctul de roua [C]
medieminmaxsumaultimamedieminmaxmediemediemin
2018-08-12 11:00:00 21.1 21 21.2 0 7304 27.17 25.72 28.4 60.28 18.6 17.7
2018-08-12 12:00:00 21.4 21.3 21.5 0 7304 27.13 26.49 27.53 57.9 17.9 16.6
2018-08-12 13:00:00 21.7 21.6 21.9 0 7294 28.59 27.43 30.52 53.45 17.9 16
2018-08-12 14:00:00 22 21.8 22.3 0 7304 27.89 26.69 29.59 51.51 16.6 14.3
2018-08-12 15:00:00 22.3 22.2 22.5 0 7294 28.79 28.15 29.49 44.21 15.1 13.9
2018-08-12 16:00:00 22.6 22.5 22.9 0 7216 27.22 26.27 29.84 51.11 15.9 13.1
2018-08-12 17:00:00 22.8 22.7 23 0 7294 25.85 25.44 26.25 56.77 16.4 15.7
2018-08-12 18:00:00 22.8 22.7 22.9 0 7264 24.91 24.62 25.26 61.12 16.6 16.2
2018-08-12 19:00:00 22.8 22.7 23 0 6942 24.5 23.89 24.87 65.9 17.5 16
2018-08-12 20:00:00 22.8 22.7 23 0 6922 22.18 20.26 24 86.5 19.6 18.9
2018-08-12 21:00:00 22.7 22.5 22.8 0 6914 19.14 18.22 20.34 96.37 18.4 18.2
2018-08-12 22:00:00 22.6 22.5 22.9 0 6894 17.75 17.4 18.21 100 17.7 17.4
2018-08-12 23:00:00 22.4 22.3 22.5 0 6894 16.92 16.6 17.32 100 16.8 16.6
2018-08-13 00:00:00 22.2 22 22.3 0 6884 16.17 15.68 16.51 100 16.1 15.6
2018-08-13 01:00:00 22 22 22.2 0 6874 15.62 15.35 16.28 100 15.5 15.3
2018-08-13 02:00:00 21.8 21.7 22 0 6854 14.86 14.6 15.09 100 14.8 14.6
2018-08-13 03:00:00 21.6 21.4 21.8 0 6844 14.6 14.22 14.98 100 14.5 14.2
2018-08-13 04:00:00 21.4 21.3 21.6 0 6834 14.02 13.68 14.35 100 13.9 13.6
2018-08-13 05:00:00 21.2 21.1 21.5 0 6816 13.72 13.47 14.13 100 13.6 13.4
2018-08-13 06:00:00 21 20.9 21.2 0 6826 13.49 13.01 13.94 100 13.4 13
2018-08-13 07:00:00 20.9 20.8 21 0.2 6904 15.31 14.16 16.49 100 15.2 14.1
2018-08-13 08:00:00 20.7 20.7 20.9 0 7098 18.67 16.79 20.63 100 18.6 16.7
2018-08-13 09:00:00 20.7 20.7 20.8 0 7264 23.23 21.52 24.41 87.17 20.8 20.3
2018-08-13 10:00:00 20.8 20.8 21 0 7304 25.17 24.31 27.09 74.05 20 19.6
2018-08-13 11:00:00 21 20.9 21.2 0 7304 27.39 26.11 29.27 62.01 19.2 18.1
2018-08-13 12:00:00 21.2 21.2 21.5 0 7294 28.71 27.71 29.37 57.72 19.3 18.4
2018-08-13 13:00:00 21.5 21.4 21.9 0 7304 28.74 28.29 29.31 54.71 18.5 17.4
2018-08-13 14:00:00 21.9 21.7 22.1 0 7294 30.87 29.84 32 46.5 17.8 17
2018-08-13 15:00:00 22.3 22.2 22.5 0 7294 31.63 30.19 32.56 42.09 16.9 16.2
2018-08-13 16:00:00 22.6 22.5 22.8 0 7254 31.54 30.25 32.94 42.21 16.9 15.9
2018-08-13 17:00:00 22.9 22.8 23.1 0 7294 28.63 27.66 31.27 54.72 18.3 17.5
2018-08-13 18:00:00 23.1 23 23.4 0 7148 27.46 27.07 27.77 57.69 18.1 17.6
2018-08-13 19:00:00 23.1 23.1 23.2 0 6962 27.45 26.97 27.88 59.91 18.8 18.6
2018-08-13 20:00:00 23.1 23.1 23.4 0 6922 23.69 21.42 26.45 82.13 20.1 18.8
2018-08-13 21:00:00 23.1 23 23.3 0 6914 20.09 19.03 21.32 99.61 19.9 19
2018-08-13 22:00:00 22.9 22.7 23.1 0 6904 18.55 18.15 18.9 100 18.5 18.1
2018-08-13 23:00:00 22.7 22.6 22.9 0 6884 17.48 17.02 18.12 100 17.4 17
2018-08-14 00:00:00 22.4 22.3 22.7 0 6874 16.61 16.2 16.9 100 16.5 16.2
2018-08-14 01:00:00 22.3 22.2 22.4 0 6864 15.92 15.7 16.22 91.66 0
2018-08-14 02:00:00 22.1 22 22.2 0 6854 15.3 14.91 15.6 100 15.2 14.9
2018-08-14 03:00:00 21.8 21.7 22 0 6834 14.79 14.37 15.15 100 14.7 14.3
2018-08-14 04:00:00 21.6 21.5 21.7 0 6826 14.15 13.7 14.61 100 14.1 13.7
2018-08-14 05:00:00 21.4 21.3 21.6 0 6816 13.63 13.3 14.09 100 13.5 13.3
2018-08-14 06:00:00 21.2 21 21.4 0 6826 13.14 12.89 13.69 100 13.1 12.8
2018-08-14 07:00:00 20.9 20.9 21.1 0.2 6884 14.93 13.72 16.22 100 14.9 13.7
2018-08-14 08:00:00 20.9 20.8 21 0 7060 18.96 16.79 20.71 98.75 18.6 16.7
2018-08-14 09:00:00 20.9 20.8 21 0 7274 23.49 21.67 25.34 73.08 18 16.5
2018-08-14 10:00:00 20.9 20.8 21 0 7304 25.19 24.23 26.16 61.53 17 16